sensor_id;sensor_type;location;lat;lon;timestamp;temperature;humidity
31387;DHT22;18017;50.124;8.688;2022-07-17T00:00:57;17.50;82.80
31387;DHT22;18017;50.124;8.688;2022-07-17T00:03:23;17.50;82.80
31387;DHT22;18017;50.124;8.688;2022-07-17T00:05:49;17.50;83.00
31387;DHT22;18017;50.124;8.688;2022-07-17T00:08:14;17.40;83.40
31387;DHT22;18017;50.124;8.688;2022-07-17T00:10:41;17.40;83.30
31387;DHT22;18017;50.124;8.688;2022-07-17T00:13:08;17.40;83.70
31387;DHT22;18017;50.124;8.688;2022-07-17T00:15:33;17.40;83.50
31387;DHT22;18017;50.124;8.688;2022-07-17T00:17:59;17.30;83.60
31387;DHT22;18017;50.124;8.688;2022-07-17T00:20:27;17.20;83.40
31387;DHT22;18017;50.124;8.688;2022-07-17T00:22:53;17.30;83.40
31387;DHT22;18017;50.124;8.688;2022-07-17T00:25:19;17.20;83.60
31387;DHT22;18017;50.124;8.688;2022-07-17T00:27:45;17.20;83.60
31387;DHT22;18017;50.124;8.688;2022-07-17T00:30:11;17.20;83.60
31387;DHT22;18017;50.124;8.688;2022-07-17T00:32:38;17.20;84.30
31387;DHT22;18017;50.124;8.688;2022-07-17T00:35:04;17.20;83.70
31387;DHT22;18017;50.124;8.688;2022-07-17T00:37:30;17.20;83.70
31387;DHT22;18017;50.124;8.688;2022-07-17T00:39:56;17.10;83.60
31387;DHT22;18017;50.124;8.688;2022-07-17T00:42:21;17.10;83.70
31387;DHT22;18017;50.124;8.688;2022-07-17T00:44:47;17.10;84.00
31387;DHT22;18017;50.124;8.688;2022-07-17T00:47:15;17.00;84.10
31387;DHT22;18017;50.124;8.688;2022-07-17T00:49:41;17.00;84.20
31387;DHT22;18017;50.124;8.688;2022-07-17T00:52:11;17.00;84.10
31387;DHT22;18017;50.124;8.688;2022-07-17T00:54:41;17.00;84.90
31387;DHT22;18017;50.124;8.688;2022-07-17T00:57:10;17.00;84.30
31387;DHT22;18017;50.124;8.688;2022-07-17T00:59:37;16.90;84.30
31387;DHT22;18017;50.124;8.688;2022-07-17T01:02:08;16.90;84.40
31387;DHT22;18017;50.124;8.688;2022-07-17T01:04:35;16.90;84.50
31387;DHT22;18017;50.124;8.688;2022-07-17T01:07:01;16.90;84.40
31387;DHT22;18017;50.124;8.688;2022-07-17T01:09:28;16.80;84.70
31387;DHT22;18017;50.124;8.688;2022-07-17T01:11:55;16.80;84.70
31387;DHT22;18017;50.124;8.688;2022-07-17T01:14:22;16.70;84.80
31387;DHT22;18017;50.124;8.688;2022-07-17T01:16:49;16.70;84.80
31387;DHT22;18017;50.124;8.688;2022-07-17T01:19:15;16.70;84.60
31387;DHT22;18017;50.124;8.688;2022-07-17T01:21:43;16.60;85.00
31387;DHT22;18017;50.124;8.688;2022-07-17T01:24:09;16.60;85.60
31387;DHT22;18017;50.124;8.688;2022-07-17T01:26:34;16.60;85.40
31387;DHT22;18017;50.124;8.688;2022-07-17T01:29:00;16.60;86.00
31387;DHT22;18017;50.124;8.688;2022-07-17T01:31:25;16.50;86.00
31387;DHT22;18017;50.124;8.688;2022-07-17T01:33:51;16.50;85.90
31387;DHT22;18017;50.124;8.688;2022-07-17T01:36:22;16.60;85.80
31387;DHT22;18017;50.124;8.688;2022-07-17T01:38:48;16.50;86.00
31387;DHT22;18017;50.124;8.688;2022-07-17T01:41:14;16.50;85.90
31387;DHT22;18017;50.124;8.688;2022-07-17T01:43:40;16.50;85.80
31387;DHT22;18017;50.124;8.688;2022-07-17T01:46:05;16.50;85.50
31387;DHT22;18017;50.124;8.688;2022-07-17T01:48:31;16.50;86.10
31387;DHT22;18017;50.124;8.688;2022-07-17T01:50:57;16.40;86.10
31387;DHT22;18017;50.124;8.688;2022-07-17T01:53:22;16.40;86.60
31387;DHT22;18017;50.124;8.688;2022-07-17T01:55:48;16.40;86.40
31387;DHT22;18017;50.124;8.688;2022-07-17T01:58:14;16.30;86.30
31387;DHT22;18017;50.124;8.688;2022-07-17T02:00:40;16.30;86.70
31387;DHT22;18017;50.124;8.688;2022-07-17T02:03:06;16.30;86.90
31387;DHT22;18017;50.124;8.688;2022-07-17T02:05:31;16.30;87.10
31387;DHT22;18017;50.124;8.688;2022-07-17T02:07:57;16.30;87.30
31387;DHT22;18017;50.124;8.688;2022-07-17T02:10:23;16.30;86.70
31387;DHT22;18017;50.124;8.688;2022-07-17T02:12:48;16.20;86.80
31387;DHT22;18017;50.124;8.688;2022-07-17T02:15:14;16.20;87.10
31387;DHT22;18017;50.124;8.688;2022-07-17T02:17:41;16.20;86.80
31387;DHT22;18017;50.124;8.688;2022-07-17T02:20:08;16.20;86.90
31387;DHT22;18017;50.124;8.688;2022-07-17T02:22:36;16.20;87.00
31387;DHT22;18017;50.124;8.688;2022-07-17T02:25:01;16.20;87.00
31387;DHT22;18017;50.124;8.688;2022-07-17T02:27:27;16.20;87.10
31387;DHT22;18017;50.124;8.688;2022-07-17T02:29:53;16.10;87.10
31387;DHT22;18017;50.124;8.688;2022-07-17T02:32:18;16.20;87.10
31387;DHT22;18017;50.124;8.688;2022-07-17T02:34:44;16.10;87.20
31387;DHT22;18017;50.124;8.688;2022-07-17T02:37:09;16.10;87.30
31387;DHT22;18017;50.124;8.688;2022-07-17T02:39:35;16.10;87.90
31387;DHT22;18017;50.124;8.688;2022-07-17T02:42:01;16.10;87.40
31387;DHT22;18017;50.124;8.688;2022-07-17T02:44:26;16.00;87.40
31387;DHT22;18017;50.124;8.688;2022-07-17T02:46:52;16.00;87.90
31387;DHT22;18017;50.124;8.688;2022-07-17T02:49:17;15.90;87.90
31387;DHT22;18017;50.124;8.688;2022-07-17T02:51:43;15.90;88.20
31387;DHT22;18017;50.124;8.688;2022-07-17T02:54:09;16.00;88.00
31387;DHT22;18017;50.124;8.688;2022-07-17T02:56:34;15.90;88.00
31387;DHT22;18017;50.124;8.688;2022-07-17T02:59:00;15.90;88.30
31387;DHT22;18017;50.124;8.688;2022-07-17T03:01:25;15.90;88.30
31387;DHT22;18017;50.124;8.688;2022-07-17T03:03:51;15.80;88.30
31387;DHT22;18017;50.124;8.688;2022-07-17T03:06:16;15.80;88.30
31387;DHT22;18017;50.124;8.688;2022-07-17T03:08:42;15.80;88.20
31387;DHT22;18017;50.124;8.688;2022-07-17T03:11:07;15.80;88.40
31387;DHT22;18017;50.124;8.688;2022-07-17T03:13:33;15.80;88.40
31387;DHT22;18017;50.124;8.688;2022-07-17T03:15:59;15.80;88.50
31387;DHT22;18017;50.124;8.688;2022-07-17T03:18:24;15.80;88.50
31387;DHT22;18017;50.124;8.688;2022-07-17T03:20:50;15.70;88.70
31387;DHT22;18017;50.124;8.688;2022-07-17T03:23:15;15.70;88.80
31387;DHT22;18017;50.124;8.688;2022-07-17T03:25:41;15.60;89.30
31387;DHT22;18017;50.124;8.688;2022-07-17T03:28:06;15.70;89.10
31387;DHT22;18017;50.124;8.688;2022-07-17T03:30:32;15.60;89.20
31387;DHT22;18017;50.124;8.688;2022-07-17T03:32:58;15.70;89.20
31387;DHT22;18017;50.124;8.688;2022-07-17T03:35:23;15.70;89.10
31387;DHT22;18017;50.124;8.688;2022-07-17T03:37:49;15.70;89.00
31387;DHT22;18017;50.124;8.688;2022-07-17T03:40:15;15.60;89.20
31387;DHT22;18017;50.124;8.688;2022-07-17T03:42:42;15.70;89.80
31387;DHT22;18017;50.124;8.688;2022-07-17T03:45:08;15.70;89.60
31387;DHT22;18017;50.124;8.688;2022-07-17T03:47:33;15.70;89.70
31387;DHT22;18017;50.124;8.688;2022-07-17T03:49:59;15.70;89.60
31387;DHT22;18017;50.124;8.688;2022-07-17T03:52:25;15.70;89.80
31387;DHT22;18017;50.124;8.688;2022-07-17T03:54:50;15.60;89.60
31387;DHT22;18017;50.124;8.688;2022-07-17T03:57:16;15.60;89.60
31387;DHT22;18017;50.124;8.688;2022-07-17T03:59:41;15.60;89.80
31387;DHT22;18017;50.124;8.688;2022-07-17T04:02:07;15.60;90.10
31387;DHT22;18017;50.124;8.688;2022-07-17T04:04:32;15.70;90.00
31387;DHT22;18017;50.124;8.688;2022-07-17T04:06:58;15.70;90.00
31387;DHT22;18017;50.124;8.688;2022-07-17T04:09:23;15.70;90.10
31387;DHT22;18017;50.124;8.688;2022-07-17T04:11:49;15.80;89.80
31387;DHT22;18017;50.124;8.688;2022-07-17T04:14:14;15.70;89.90
31387;DHT22;18017;50.124;8.688;2022-07-17T04:16:40;15.70;90.10
31387;DHT22;18017;50.124;8.688;2022-07-17T04:19:06;15.80;90.00
31387;DHT22;18017;50.124;8.688;2022-07-17T04:21:31;15.80;90.00
31387;DHT22;18017;50.124;8.688;2022-07-17T04:23:57;15.80;90.00
31387;DHT22;18017;50.124;8.688;2022-07-17T04:26:22;15.80;90.10
31387;DHT22;18017;50.124;8.688;2022-07-17T04:28:48;15.80;90.10
31387;DHT22;18017;50.124;8.688;2022-07-17T04:31:13;15.80;90.10
31387;DHT22;18017;50.124;8.688;2022-07-17T04:33:39;15.90;90.10
31387;DHT22;18017;50.124;8.688;2022-07-17T04:36:05;15.90;90.10
31387;DHT22;18017;50.124;8.688;2022-07-17T04:38:30;15.90;90.20
31387;DHT22;18017;50.124;8.688;2022-07-17T04:40:56;15.90;90.30
31387;DHT22;18017;50.124;8.688;2022-07-17T04:43:22;15.90;90.10
31387;DHT22;18017;50.124;8.688;2022-07-17T04:45:48;16.00;90.20
31387;DHT22;18017;50.124;8.688;2022-07-17T04:48:14;16.00;90.20
31387;DHT22;18017;50.124;8.688;2022-07-17T04:50:39;16.00;90.20
31387;DHT22;18017;50.124;8.688;2022-07-17T04:53:05;16.00;90.10
31387;DHT22;18017;50.124;8.688;2022-07-17T04:55:31;16.00;90.20
31387;DHT22;18017;50.124;8.688;2022-07-17T04:57:56;16.00;90.10
31387;DHT22;18017;50.124;8.688;2022-07-17T05:00:22;16.10;90.20
31387;DHT22;18017;50.124;8.688;2022-07-17T05:02:48;16.10;90.20
31387;DHT22;18017;50.124;8.688;2022-07-17T05:05:14;16.10;90.30
31387;DHT22;18017;50.124;8.688;2022-07-17T05:07:40;16.20;90.10
31387;DHT22;18017;50.124;8.688;2022-07-17T05:10:06;16.20;90.10
31387;DHT22;18017;50.124;8.688;2022-07-17T05:12:31;16.20;90.20
31387;DHT22;18017;50.124;8.688;2022-07-17T05:14:57;16.20;90.10
31387;DHT22;18017;50.124;8.688;2022-07-17T05:17:24;16.20;90.00
31387;DHT22;18017;50.124;8.688;2022-07-17T05:19:49;16.20;90.10
31387;DHT22;18017;50.124;8.688;2022-07-17T05:22:15;16.20;90.00
31387;DHT22;18017;50.124;8.688;2022-07-17T05:24:41;16.30;90.10
31387;DHT22;18017;50.124;8.688;2022-07-17T05:27:06;16.30;90.00
31387;DHT22;18017;50.124;8.688;2022-07-17T05:29:32;16.30;90.10
31387;DHT22;18017;50.124;8.688;2022-07-17T05:31:57;16.40;90.30
31387;DHT22;18017;50.124;8.688;2022-07-17T05:34:23;16.40;90.10
31387;DHT22;18017;50.124;8.688;2022-07-17T05:36:49;16.40;90.00
31387;DHT22;18017;50.124;8.688;2022-07-17T05:39:14;16.40;90.20
31387;DHT22;18017;50.124;8.688;2022-07-17T05:41:40;16.50;90.50
31387;DHT22;18017;50.124;8.688;2022-07-17T05:44:05;16.50;90.20
31387;DHT22;18017;50.124;8.688;2022-07-17T05:46:31;16.60;90.10
31387;DHT22;18017;50.124;8.688;2022-07-17T05:48:57;16.60;90.20
31387;DHT22;18017;50.124;8.688;2022-07-17T05:51:22;16.70;89.90
31387;DHT22;18017;50.124;8.688;2022-07-17T05:53:48;16.70;90.00
31387;DHT22;18017;50.124;8.688;2022-07-17T05:56:13;16.80;89.90
31387;DHT22;18017;50.124;8.688;2022-07-17T05:58:39;16.90;89.70
31387;DHT22;18017;50.124;8.688;2022-07-17T06:01:05;17.00;89.50
31387;DHT22;18017;50.124;8.688;2022-07-17T06:03:30;17.00;89.40
31387;DHT22;18017;50.124;8.688;2022-07-17T06:05:56;17.20;89.50
31387;DHT22;18017;50.124;8.688;2022-07-17T06:08:21;17.50;89.10
31387;DHT22;18017;50.124;8.688;2022-07-17T06:10:47;18.40;87.90
31387;DHT22;18017;50.124;8.688;2022-07-17T06:13:13;19.30;86.00
31387;DHT22;18017;50.124;8.688;2022-07-17T06:15:38;19.70;84.60
31387;DHT22;18017;50.124;8.688;2022-07-17T06:18:04;20.00;84.00
31387;DHT22;18017;50.124;8.688;2022-07-17T06:20:30;20.50;83.10
31387;DHT22;18017;50.124;8.688;2022-07-17T06:22:56;21.30;82.00
31387;DHT22;18017;50.124;8.688;2022-07-17T06:25:22;22.00;80.80
31387;DHT22;18017;50.124;8.688;2022-07-17T06:27:48;22.40;79.80
31387;DHT22;18017;50.124;8.688;2022-07-17T06:30:14;23.60;78.50
31387;DHT22;18017;50.124;8.688;2022-07-17T06:32:41;24.50;77.60
31387;DHT22;18017;50.124;8.688;2022-07-17T06:35:07;25.10;76.10
31387;DHT22;18017;50.124;8.688;2022-07-17T06:37:33;25.50;75.70
31387;DHT22;18017;50.124;8.688;2022-07-17T06:39:59;26.30;74.90
31387;DHT22;18017;50.124;8.688;2022-07-17T06:42:25;26.80;74.10
31387;DHT22;18017;50.124;8.688;2022-07-17T06:44:50;27.50;73.20
31387;DHT22;18017;50.124;8.688;2022-07-17T06:47:16;28.30;72.50
31387;DHT22;18017;50.124;8.688;2022-07-17T06:49:42;28.70;71.50
31387;DHT22;18017;50.124;8.688;2022-07-17T06:52:08;28.70;70.90
31387;DHT22;18017;50.124;8.688;2022-07-17T06:54:34;29.40;70.30
31387;DHT22;18017;50.124;8.688;2022-07-17T06:56:59;29.50;70.10
31387;DHT22;18017;50.124;8.688;2022-07-17T06:59:25;29.90;69.80
31387;DHT22;18017;50.124;8.688;2022-07-17T07:01:53;30.10;69.70
31387;DHT22;18017;50.124;8.688;2022-07-17T07:04:19;31.40;69.10
31387;DHT22;18017;50.124;8.688;2022-07-17T07:06:44;31.60;68.20
31387;DHT22;18017;50.124;8.688;2022-07-17T07:09:10;32.30;67.60
31387;DHT22;18017;50.124;8.688;2022-07-17T07:11:37;32.80;66.80
31387;DHT22;18017;50.124;8.688;2022-07-17T07:14:03;32.70;66.00
31387;DHT22;18017;50.124;8.688;2022-07-17T07:16:29;33.10;65.90
31387;DHT22;18017;50.124;8.688;2022-07-17T07:18:55;34.10;65.30
31387;DHT22;18017;50.124;8.688;2022-07-17T07:21:20;35.00;65.00
31387;DHT22;18017;50.124;8.688;2022-07-17T07:23:48;35.70;64.00
31387;DHT22;18017;50.124;8.688;2022-07-17T07:26:14;34.70;63.80
31387;DHT22;18017;50.124;8.688;2022-07-17T07:28:39;35.00;64.00
31387;DHT22;18017;50.124;8.688;2022-07-17T07:31:05;36.10;63.30
31387;DHT22;18017;50.124;8.688;2022-07-17T07:33:30;36.00;62.30
31387;DHT22;18017;50.124;8.688;2022-07-17T07:35:56;36.50;62.50
31387;DHT22;18017;50.124;8.688;2022-07-17T07:38:22;36.40;61.60
31387;DHT22;18017;50.124;8.688;2022-07-17T07:40:48;36.50;61.50
31387;DHT22;18017;50.124;8.688;2022-07-17T07:43:13;36.70;61.60
31387;DHT22;18017;50.124;8.688;2022-07-17T07:45:39;37.40;61.20
31387;DHT22;18017;50.124;8.688;2022-07-17T07:48:04;38.10;60.40
31387;DHT22;18017;50.124;8.688;2022-07-17T07:50:30;38.00;60.00
31387;DHT22;18017;50.124;8.688;2022-07-17T07:52:56;38.40;60.00
31387;DHT22;18017;50.124;8.688;2022-07-17T07:55:21;40.20;59.10
31387;DHT22;18017;50.124;8.688;2022-07-17T07:58:01;40.40;59.00
31387;DHT22;18017;50.124;8.688;2022-07-17T08:00:27;41.00;58.60
31387;DHT22;18017;50.124;8.688;2022-07-17T08:02:52;42.10;58.60
31387;DHT22;18017;50.124;8.688;2022-07-17T08:05:18;43.10;58.20
31387;DHT22;18017;50.124;8.688;2022-07-17T08:07:43;42.90;57.70
31387;DHT22;18017;50.124;8.688;2022-07-17T08:10:09;43.40;57.40
31387;DHT22;18017;50.124;8.688;2022-07-17T08:12:35;43.60;56.90
31387;DHT22;18017;50.124;8.688;2022-07-17T08:15:00;43.10;56.80
31387;DHT22;18017;50.124;8.688;2022-07-17T08:17:26;43.40;56.40
31387;DHT22;18017;50.124;8.688;2022-07-17T08:19:51;44.30;56.30
31387;DHT22;18017;50.124;8.688;2022-07-17T08:22:17;44.40;56.40
31387;DHT22;18017;50.124;8.688;2022-07-17T08:24:43;44.30;56.10
31387;DHT22;18017;50.124;8.688;2022-07-17T08:27:08;43.80;55.70
31387;DHT22;18017;50.124;8.688;2022-07-17T08:29:34;43.50;55.60
31387;DHT22;18017;50.124;8.688;2022-07-17T08:31:59;43.30;56.30
31387;DHT22;18017;50.124;8.688;2022-07-17T08:34:25;44.50;55.40
31387;DHT22;18017;50.124;8.688;2022-07-17T08:36:50;45.40;55.20
31387;DHT22;18017;50.124;8.688;2022-07-17T08:39:17;46.30;54.80
31387;DHT22;18017;50.124;8.688;2022-07-17T08:41:42;46.30;54.60
31387;DHT22;18017;50.124;8.688;2022-07-17T08:44:08;47.00;54.40
31387;DHT22;18017;50.124;8.688;2022-07-17T08:46:39;47.30;53.70
31387;DHT22;18017;50.124;8.688;2022-07-17T08:49:06;47.20;53.80
31387;DHT22;18017;50.124;8.688;2022-07-17T08:51:33;46.40;53.00
31387;DHT22;18017;50.124;8.688;2022-07-17T08:53:59;46.20;53.20
31387;DHT22;18017;50.124;8.688;2022-07-17T08:56:26;47.60;52.70
31387;DHT22;18017;50.124;8.688;2022-07-17T08:58:52;47.80;52.60
31387;DHT22;18017;50.124;8.688;2022-07-17T09:01:19;48.80;52.70
31387;DHT22;18017;50.124;8.688;2022-07-17T09:04:02;49.00;52.20
31387;DHT22;18017;50.124;8.688;2022-07-17T09:06:32;48.80;52.10
31387;DHT22;18017;50.124;8.688;2022-07-17T09:09:03;48.50;52.10
31387;DHT22;18017;50.124;8.688;2022-07-17T09:11:29;48.80;52.10
31387;DHT22;18017;50.124;8.688;2022-07-17T09:13:55;48.80;51.90
31387;DHT22;18017;50.124;8.688;2022-07-17T09:16:23;48.00;51.80
31387;DHT22;18017;50.124;8.688;2022-07-17T09:18:50;47.10;51.70
31387;DHT22;18017;50.124;8.688;2022-07-17T09:21:27;48.40;51.80
31387;DHT22;18017;50.124;8.688;2022-07-17T09:26:25;48.40;51.30
31387;DHT22;18017;50.124;8.688;2022-07-17T09:28:50;48.00;51.20
31387;DHT22;18017;50.124;8.688;2022-07-17T09:31:31;48.60;50.90
31387;DHT22;18017;50.124;8.688;2022-07-17T09:33:57;49.00;50.90
31387;DHT22;18017;50.124;8.688;2022-07-17T09:36:24;49.40;50.70
31387;DHT22;18017;50.124;8.688;2022-07-17T09:38:56;49.90;50.60
31387;DHT22;18017;50.124;8.688;2022-07-17T09:41:24;50.60;50.50
31387;DHT22;18017;50.124;8.688;2022-07-17T09:43:58;51.00;50.10
31387;DHT22;18017;50.124;8.688;2022-07-17T09:46:29;51.00;50.50
31387;DHT22;18017;50.124;8.688;2022-07-17T09:49:02;49.10;49.80
31387;DHT22;18017;50.124;8.688;2022-07-17T09:51:30;49.60;50.40
31387;DHT22;18017;50.124;8.688;2022-07-17T09:53:58;48.50;49.90
31387;DHT22;18017;50.124;8.688;2022-07-17T09:56:26;49.10;50.70
31387;DHT22;18017;50.124;8.688;2022-07-17T09:58:55;50.00;50.60
31387;DHT22;18017;50.124;8.688;2022-07-17T10:01:22;51.00;50.20
31387;DHT22;18017;50.124;8.688;2022-07-17T10:03:48;50.60;50.00
31387;DHT22;18017;50.124;8.688;2022-07-17T10:06:15;51.30;50.10
31387;DHT22;18017;50.124;8.688;2022-07-17T10:08:41;50.50;49.90
31387;DHT22;18017;50.124;8.688;2022-07-17T10:11:08;50.00;49.90
31387;DHT22;18017;50.124;8.688;2022-07-17T10:13:42;51.10;49.90
31387;DHT22;18017;50.124;8.688;2022-07-17T10:16:08;51.70;49.70
31387;DHT22;18017;50.124;8.688;2022-07-17T10:18:38;52.30;49.70
31387;DHT22;18017;50.124;8.688;2022-07-17T10:21:15;52.40;49.40
31387;DHT22;18017;50.124;8.688;2022-07-17T10:23:43;51.70;49.10
31387;DHT22;18017;50.124;8.688;2022-07-17T10:26:09;50.80;49.10
31387;DHT22;18017;50.124;8.688;2022-07-17T10:28:46;50.80;48.90
31387;DHT22;18017;50.124;8.688;2022-07-17T10:31:29;49.90;49.00
31387;DHT22;18017;50.124;8.688;2022-07-17T10:34:13;49.40;49.10
31387;DHT22;18017;50.124;8.688;2022-07-17T10:36:41;49.00;49.20
31387;DHT22;18017;50.124;8.688;2022-07-17T10:39:15;49.10;49.50
31387;DHT22;18017;50.124;8.688;2022-07-17T10:41:42;50.00;49.40
31387;DHT22;18017;50.124;8.688;2022-07-17T10:44:08;50.00;49.10
31387;DHT22;18017;50.124;8.688;2022-07-17T10:46:34;50.00;49.00
31387;DHT22;18017;50.124;8.688;2022-07-17T10:49:01;50.20;49.10
31387;DHT22;18017;50.124;8.688;2022-07-17T10:51:31;51.40;49.10
31387;DHT22;18017;50.124;8.688;2022-07-17T10:53:58;51.40;48.60
31387;DHT22;18017;50.124;8.688;2022-07-17T10:56:25;50.40;48.30
31387;DHT22;18017;50.124;8.688;2022-07-17T10:58:51;50.10;48.40
31387;DHT22;18017;50.124;8.688;2022-07-17T11:01:21;49.40;47.70
31387;DHT22;18017;50.124;8.688;2022-07-17T11:03:52;49.80;48.20
31387;DHT22;18017;50.124;8.688;2022-07-17T11:06:26;50.30;48.10
31387;DHT22;18017;50.124;8.688;2022-07-17T11:09:10;50.80;48.10
31387;DHT22;18017;50.124;8.688;2022-07-17T11:11:47;47.40;48.40
31387;DHT22;18017;50.124;8.688;2022-07-17T11:14:16;48.00;47.80
31387;DHT22;18017;50.124;8.688;2022-07-17T11:16:50;46.40;48.30
31387;DHT22;18017;50.124;8.688;2022-07-17T11:19:33;46.40;48.80
31387;DHT22;18017;50.124;8.688;2022-07-17T11:22:04;46.50;48.50
31387;DHT22;18017;50.124;8.688;2022-07-17T11:27:02;48.10;48.70
31387;DHT22;18017;50.124;8.688;2022-07-17T11:29:28;48.00;49.30
31387;DHT22;18017;50.124;8.688;2022-07-17T11:31:57;47.90;48.50
31387;DHT22;18017;50.124;8.688;2022-07-17T11:34:25;47.20;48.70
31387;DHT22;18017;50.124;8.688;2022-07-17T11:36:50;47.60;49.10
31387;DHT22;18017;50.124;8.688;2022-07-17T11:39:16;47.90;48.30
31387;DHT22;18017;50.124;8.688;2022-07-17T11:41:50;46.90;48.20
31387;DHT22;18017;50.124;8.688;2022-07-17T11:44:20;47.00;47.40
31387;DHT22;18017;50.124;8.688;2022-07-17T11:46:48;46.70;46.80
31387;DHT22;18017;50.124;8.688;2022-07-17T11:49:29;45.60;46.70
31387;DHT22;18017;50.124;8.688;2022-07-17T11:51:57;44.70;46.40
31387;DHT22;18017;50.124;8.688;2022-07-17T11:54:23;45.60;46.60
31387;DHT22;18017;50.124;8.688;2022-07-17T11:56:55;46.10;46.00
31387;DHT22;18017;50.124;8.688;2022-07-17T11:59:39;46.30;46.60
31387;DHT22;18017;50.124;8.688;2022-07-17T12:02:13;45.30;46.60
31387;DHT22;18017;50.124;8.688;2022-07-17T12:04:50;44.30;47.20
31387;DHT22;18017;50.124;8.688;2022-07-17T12:07:16;44.50;47.30
31387;DHT22;18017;50.124;8.688;2022-07-17T12:09:42;44.80;48.10
31387;DHT22;18017;50.124;8.688;2022-07-17T12:12:24;45.60;47.70
31387;DHT22;18017;50.124;8.688;2022-07-17T12:14:58;43.80;44.60
31387;DHT22;18017;50.124;8.688;2022-07-17T12:17:35;42.10;45.40
31387;DHT22;18017;50.124;8.688;2022-07-17T12:20:07;42.90;46.20
31387;DHT22;18017;50.124;8.688;2022-07-17T12:22:43;43.60;46.40
31387;DHT22;18017;50.124;8.688;2022-07-17T12:25:09;43.60;46.40
31387;DHT22;18017;50.124;8.688;2022-07-17T12:27:34;43.70;46.80
31387;DHT22;18017;50.124;8.688;2022-07-17T12:30:00;43.10;46.60
31387;DHT22;18017;50.124;8.688;2022-07-17T12:32:25;43.20;47.30
31387;DHT22;18017;50.124;8.688;2022-07-17T12:34:51;42.10;46.30
31387;DHT22;18017;50.124;8.688;2022-07-17T12:37:20;40.80;46.70
31387;DHT22;18017;50.124;8.688;2022-07-17T12:39:48;40.00;47.20
31387;DHT22;18017;50.124;8.688;2022-07-17T12:42:16;40.60;47.40
31387;DHT22;18017;50.124;8.688;2022-07-17T12:44:43;40.40;47.20
31387;DHT22;18017;50.124;8.688;2022-07-17T12:47:09;40.70;46.70
31387;DHT22;18017;50.124;8.688;2022-07-17T12:49:35;40.00;45.90
31387;DHT22;18017;50.124;8.688;2022-07-17T12:52:01;39.90;46.50
31387;DHT22;18017;50.124;8.688;2022-07-17T12:54:27;39.70;46.30
31387;DHT22;18017;50.124;8.688;2022-07-17T12:56:53;39.40;46.80
31387;DHT22;18017;50.124;8.688;2022-07-17T12:59:19;39.80;47.50
31387;DHT22;18017;50.124;8.688;2022-07-17T13:01:45;39.70;46.80
31387;DHT22;18017;50.124;8.688;2022-07-17T13:04:11;38.60;46.80
31387;DHT22;18017;50.124;8.688;2022-07-17T13:06:37;37.80;46.50
31387;DHT22;18017;50.124;8.688;2022-07-17T13:09:04;38.50;47.40
31387;DHT22;18017;50.124;8.688;2022-07-17T13:11:29;39.10;47.40
31387;DHT22;18017;50.124;8.688;2022-07-17T13:13:55;39.10;46.50
31387;DHT22;18017;50.124;8.688;2022-07-17T13:16:21;38.70;47.00
31387;DHT22;18017;50.124;8.688;2022-07-17T13:18:46;38.00;47.20
31387;DHT22;18017;50.124;8.688;2022-07-17T13:21:12;37.30;46.50
31387;DHT22;18017;50.124;8.688;2022-07-17T13:23:38;37.20;46.90
31387;DHT22;18017;50.124;8.688;2022-07-17T13:26:04;37.50;47.70
31387;DHT22;18017;50.124;8.688;2022-07-17T13:28:30;37.90;47.10
31387;DHT22;18017;50.124;8.688;2022-07-17T13:30:56;37.40;46.30
31387;DHT22;18017;50.124;8.688;2022-07-17T13:33:22;36.90;46.90
31387;DHT22;18017;50.124;8.688;2022-07-17T13:35:48;37.30;47.50
31387;DHT22;18017;50.124;8.688;2022-07-17T13:38:13;37.50;47.20
31387;DHT22;18017;50.124;8.688;2022-07-17T13:40:40;37.30;46.60
31387;DHT22;18017;50.124;8.688;2022-07-17T13:43:06;36.80;46.40
31387;DHT22;18017;50.124;8.688;2022-07-17T13:45:32;36.80;46.60
31387;DHT22;18017;50.124;8.688;2022-07-17T13:47:58;36.40;46.40
31387;DHT22;18017;50.124;8.688;2022-07-17T13:50:25;36.40;46.70
31387;DHT22;18017;50.124;8.688;2022-07-17T13:52:51;35.90;46.70
31387;DHT22;18017;50.124;8.688;2022-07-17T13:55:17;35.10;46.80
31387;DHT22;18017;50.124;8.688;2022-07-17T13:57:42;34.40;46.70
31387;DHT22;18017;50.124;8.688;2022-07-17T14:00:09;34.30;47.00
31387;DHT22;18017;50.124;8.688;2022-07-17T14:02:35;34.30;46.90
31387;DHT22;18017;50.124;8.688;2022-07-17T14:05:03;34.40;47.00
31387;DHT22;18017;50.124;8.688;2022-07-17T14:07:29;34.20;47.00
31387;DHT22;18017;50.124;8.688;2022-07-17T14:09:54;33.80;47.70
31387;DHT22;18017;50.124;8.688;2022-07-17T14:12:20;33.70;47.60
31387;DHT22;18017;50.124;8.688;2022-07-17T14:14:45;33.60;47.40
31387;DHT22;18017;50.124;8.688;2022-07-17T14:17:11;33.90;47.70
31387;DHT22;18017;50.124;8.688;2022-07-17T14:19:37;33.80;47.50
31387;DHT22;18017;50.124;8.688;2022-07-17T14:22:03;33.80;47.80
31387;DHT22;18017;50.124;8.688;2022-07-17T14:24:29;33.80;48.20
31387;DHT22;18017;50.124;8.688;2022-07-17T14:26:55;33.50;47.70
31387;DHT22;18017;50.124;8.688;2022-07-17T14:29:20;33.60;47.70
31387;DHT22;18017;50.124;8.688;2022-07-17T14:31:46;33.60;47.80
31387;DHT22;18017;50.124;8.688;2022-07-17T14:34:12;33.50;47.90
31387;DHT22;18017;50.124;8.688;2022-07-17T14:36:38;32.90;48.10
31387;DHT22;18017;50.124;8.688;2022-07-17T14:39:04;32.30;48.10
31387;DHT22;18017;50.124;8.688;2022-07-17T14:41:30;32.10;48.50
31387;DHT22;18017;50.124;8.688;2022-07-17T14:43:56;31.70;49.10
31387;DHT22;18017;50.124;8.688;2022-07-17T14:46:21;31.20;48.90
31387;DHT22;18017;50.124;8.688;2022-07-17T14:48:47;31.10;48.90
31387;DHT22;18017;50.124;8.688;2022-07-17T14:51:13;31.30;49.40
31387;DHT22;18017;50.124;8.688;2022-07-17T14:53:38;31.30;49.40
31387;DHT22;18017;50.124;8.688;2022-07-17T14:56:04;31.10;49.10
31387;DHT22;18017;50.124;8.688;2022-07-17T14:58:30;31.10;49.60
31387;DHT22;18017;50.124;8.688;2022-07-17T15:00:55;30.90;49.20
31387;DHT22;18017;50.124;8.688;2022-07-17T15:03:21;30.70;49.30
31387;DHT22;18017;50.124;8.688;2022-07-17T15:05:46;30.40;49.10
31387;DHT22;18017;50.124;8.688;2022-07-17T15:08:12;30.40;49.40
31387;DHT22;18017;50.124;8.688;2022-07-17T15:10:38;30.30;49.00
31387;DHT22;18017;50.124;8.688;2022-07-17T15:13:03;30.30;49.10
31387;DHT22;18017;50.124;8.688;2022-07-17T15:15:29;30.40;49.20
31387;DHT22;18017;50.124;8.688;2022-07-17T15:17:55;30.40;50.10
31387;DHT22;18017;50.124;8.688;2022-07-17T15:20:21;30.40;50.40
31387;DHT22;18017;50.124;8.688;2022-07-17T15:22:47;30.40;50.60
31387;DHT22;18017;50.124;8.688;2022-07-17T15:25:12;30.40;50.70
31387;DHT22;18017;50.124;8.688;2022-07-17T15:27:38;30.30;50.90
31387;DHT22;18017;50.124;8.688;2022-07-17T15:30:04;30.20;51.00
31387;DHT22;18017;50.124;8.688;2022-07-17T15:32:30;30.10;51.00